createdAt,value
2022-12-16T00:05:13.173Z,-1.58
2022-12-16T00:07:58.147Z,-1.41
2022-12-16T00:10:55.277Z,-1.42
2022-12-16T00:13:40.550Z,-1.49
2022-12-16T00:16:25.643Z,-1.59
2022-12-16T00:19:10.846Z,-1.68
2022-12-16T00:21:56.187Z,-1.55
2022-12-16T00:24:42.339Z,-1.63
2022-12-16T00:27:27.640Z,-1.78
2022-12-16T00:30:13.301Z,-1.81
2022-12-16T00:32:58.256Z,-1.75
2022-12-16T00:35:46.010Z,-1.82
2022-12-16T00:38:31.103Z,-1.88
2022-12-16T00:41:16.248Z,-1.85
2022-12-16T00:44:01.384Z,-1.91
2022-12-16T00:46:46.543Z,-1.78
2022-12-16T00:49:31.533Z,-1.82
2022-12-16T00:52:16.754Z,-1.85
2022-12-16T00:55:02.709Z,-1.94
2022-12-16T00:57:47.863Z,-1.96
2022-12-16T01:00:32.879Z,-2.00
2022-12-16T01:03:21.534Z,-2.01
2022-12-16T01:06:09.166Z,-2.10
2022-12-16T01:08:54.178Z,-2.09
2022-12-16T01:11:40.241Z,-2.02
2022-12-16T01:14:25.304Z,-1.95
2022-12-16T01:17:10.426Z,-1.93
2022-12-16T01:19:55.822Z,-2.01
2022-12-16T01:22:41.980Z,-1.90
2022-12-16T01:25:27.166Z,-1.86
2022-12-16T01:28:12.262Z,-2.00
2022-12-16T01:31:01.637Z,-1.91
2022-12-16T01:33:47.320Z,-1.92
2022-12-16T01:36:32.363Z,-1.89
2022-12-16T01:39:17.500Z,-1.88
2022-12-16T01:42:02.505Z,-1.81
2022-12-16T01:44:52.065Z,-1.79
2022-12-16T01:47:37.960Z,-1.83
2022-12-16T01:50:23.793Z,-1.82
2022-12-16T01:53:09.177Z,-1.80
2022-12-16T01:55:56.884Z,-1.80
2022-12-16T01:58:43.946Z,-1.83
2022-12-16T02:01:29.793Z,-1.81
2022-12-16T02:04:15.158Z,-1.81
2022-12-16T02:07:01.437Z,-1.85
2022-12-16T02:09:46.622Z,-1.88
2022-12-16T02:15:52.121Z,-1.83
2022-12-16T02:18:43.610Z,-1.80
2022-12-16T02:21:47.647Z,-2.01
2022-12-16T02:24:50.968Z,-1.87
2022-12-16T02:31:09.990Z,-1.90
2022-12-16T02:34:13.184Z,-1.94
2022-12-16T02:37:17.927Z,-2.05
2022-12-16T02:40:11.481Z,-1.96
2022-12-16T02:43:11.352Z,-1.97
2022-12-16T02:45:56.686Z,-1.99
2022-12-16T02:48:41.754Z,-2.02
2022-12-16T02:51:27.303Z,-2.05
2022-12-16T02:54:13.050Z,-1.93
2022-12-16T02:57:07.121Z,-1.88
2022-12-16T03:00:13.024Z,-1.88
2022-12-16T03:03:10.359Z,-2.08
2022-12-16T03:05:57.842Z,-1.80
2022-12-16T03:08:47.755Z,-1.80
2022-12-16T03:11:33.636Z,-1.80
2022-12-16T03:14:22.985Z,-1.79
2022-12-16T03:20:23.530Z,-1.81
2022-12-16T03:23:13.472Z,-1.74
2022-12-16T03:26:04.839Z,-1.72
2022-12-16T03:28:56.167Z,-1.70
2022-12-16T03:31:51.247Z,-1.63
2022-12-16T03:38:14.278Z,-1.70
2022-12-16T03:41:01.072Z,-1.78
2022-12-16T03:43:46.644Z,-1.66
2022-12-16T03:46:32.197Z,-1.75
2022-12-16T03:49:17.381Z,-1.91
2022-12-16T03:55:06.280Z,-1.85
2022-12-16T03:57:51.752Z,-1.87
2022-12-16T04:00:37.056Z,-1.87
2022-12-16T04:03:26.607Z,-1.97
2022-12-16T04:06:11.923Z,-1.99
2022-12-16T04:12:18.613Z,-1.94
2022-12-16T04:15:24.106Z,-1.98
2022-12-16T04:18:34.081Z,-2.04
2022-12-16T04:21:38.129Z,-2.13
2022-12-16T04:27:30.439Z,-2.15
2022-12-16T04:30:20.882Z,-2.22
2022-12-16T04:33:35.094Z,-2.20
2022-12-16T04:36:39.274Z,-2.40
2022-12-16T04:39:43.028Z,-2.31
2022-12-16T04:46:09.493Z,-2.46
2022-12-16T04:49:13.163Z,-2.46
2022-12-16T04:52:16.938Z,-2.54
2022-12-16T04:55:20.768Z,-2.62
2022-12-16T05:01:46.798Z,-2.64
2022-12-16T05:04:50.571Z,-2.79
2022-12-16T05:07:54.341Z,-2.72
2022-12-16T05:10:58.289Z,-2.75
2022-12-16T05:14:02.218Z,-2.93
2022-12-16T05:17:05.990Z,-2.91
2022-12-16T05:20:09.810Z,-2.91
2022-12-16T05:23:17.043Z,-2.97
2022-12-16T05:26:20.789Z,-2.99
2022-12-16T05:29:24.669Z,-3.05
2022-12-16T05:32:44.038Z,-3.13
2022-12-16T05:36:07.597Z,-3.24
2022-12-16T05:39:11.886Z,-3.28
2022-12-16T05:42:15.709Z,-3.29
2022-12-16T05:45:19.384Z,-3.28
2022-12-16T05:48:23.391Z,-3.35
2022-12-16T05:51:27.089Z,-3.47
2022-12-16T05:54:30.900Z,-3.76
2022-12-16T05:57:34.797Z,-3.78
2022-12-16T06:00:38.787Z,-3.75
2022-12-16T06:03:42.674Z,-3.80
2022-12-16T06:06:46.363Z,-3.92
2022-12-16T06:09:58.660Z,-3.96
2022-12-16T06:13:06.087Z,-4.07
2022-12-16T06:16:09.909Z,-4.21
2022-12-16T06:19:13.707Z,-4.19
2022-12-16T06:22:17.826Z,-4.26
2022-12-16T06:25:22.715Z,-4.17
2022-12-16T06:28:26.383Z,-4.20
2022-12-16T06:31:30.169Z,-4.35
2022-12-16T06:34:33.890Z,-4.44
2022-12-16T06:37:37.785Z,-4.40
2022-12-16T06:40:41.639Z,-4.54
2022-12-16T06:43:45.511Z,-4.58
2022-12-16T06:46:49.466Z,-4.56
2022-12-16T06:49:53.393Z,-4.64
2022-12-16T06:52:57.433Z,-4.77
2022-12-16T06:56:01.282Z,-4.85
2022-12-16T06:59:05.275Z,-4.86
2022-12-16T07:02:09.187Z,-4.90
2022-12-16T07:05:13.047Z,-5.08
2022-12-16T07:08:16.892Z,-5.11
2022-12-16T07:11:20.683Z,-5.08
2022-12-16T07:14:24.506Z,-5.08
2022-12-16T07:17:28.720Z,-5.19
2022-12-16T07:20:32.192Z,-5.23
2022-12-16T07:23:36.017Z,-5.10
2022-12-16T07:26:39.671Z,-5.04
2022-12-16T07:29:43.351Z,-4.94
2022-12-16T07:32:47.261Z,-4.94
2022-12-16T07:35:50.948Z,-5.16
2022-12-16T07:38:54.763Z,-5.30
2022-12-16T07:41:58.662Z,-5.30
2022-12-16T07:45:02.480Z,-5.35
2022-12-16T07:48:10.100Z,-5.57
2022-12-16T07:51:13.955Z,-5.63
2022-12-16T07:54:17.888Z,-5.55
2022-12-16T07:57:21.814Z,-5.54
2022-12-16T08:00:26.406Z,-5.46
2022-12-16T08:03:38.074Z,-5.43
2022-12-16T08:06:42.538Z,-5.37
2022-12-16T08:09:46.493Z,-5.41
2022-12-16T08:12:50.362Z,-5.49
2022-12-16T08:15:54.332Z,-5.23
2022-12-16T08:18:58.273Z,-5.38
2022-12-16T08:22:02.237Z,-5.00
2022-12-16T08:25:06.043Z,-5.06
2022-12-16T08:28:14.479Z,-5.01
2022-12-16T08:31:18.495Z,-5.08
2022-12-16T08:34:22.391Z,-5.08
2022-12-16T08:37:26.099Z,-5.12
2022-12-16T08:40:37.326Z,-5.21
2022-12-16T08:43:41.074Z,-5.08
2022-12-16T08:46:45.214Z,-5.04
2022-12-16T08:49:48.983Z,-5.03
2022-12-16T08:52:52.882Z,-4.90
2022-12-16T08:55:56.580Z,-4.80
2022-12-16T08:59:00.307Z,-4.72
2022-12-16T09:02:04.160Z,-4.77
2022-12-16T09:05:08.188Z,-4.56
2022-12-16T09:08:18.384Z,-4.36
2022-12-16T09:11:22.191Z,-4.09
2022-12-16T09:14:26.132Z,-4.10
2022-12-16T09:17:30.035Z,-3.96
2022-12-16T09:20:34.439Z,-3.92
2022-12-16T09:23:38.684Z,-3.96
2022-12-16T09:26:45.833Z,-3.90
2022-12-16T09:29:54.165Z,-3.77
2022-12-16T09:33:03.562Z,-3.63
2022-12-16T09:36:07.820Z,-3.60
2022-12-16T09:39:11.570Z,-3.63
2022-12-16T09:42:52.464Z,-3.47
2022-12-16T09:45:59.116Z,-3.45
2022-12-16T09:49:15.412Z,-3.25
2022-12-16T09:52:21.838Z,-3.23
2022-12-16T09:55:44.411Z,-3.07
2022-12-16T09:58:59.659Z,-2.95
2022-12-16T10:02:03.733Z,-2.80
2022-12-16T10:05:11.034Z,-2.81
2022-12-16T10:08:36.668Z,-2.59
2022-12-16T10:11:52.269Z,-2.34
2022-12-16T10:15:17.199Z,-2.26
2022-12-16T10:18:29.968Z,-2.16
2022-12-16T10:21:40.370Z,-2.20
2022-12-16T10:25:09.653Z,-1.71
2022-12-16T10:28:22.889Z,-1.29
2022-12-16T10:31:35.936Z,-1.27
2022-12-16T10:34:48.744Z,-1.16
2022-12-16T10:37:56.640Z,-1.25
2022-12-16T10:41:00.507Z,-1.14
2022-12-16T10:44:06.574Z,-1.06
2022-12-16T10:47:10.229Z,-1.02
2022-12-16T10:50:14.515Z,-0.88
2022-12-16T10:53:30.525Z,-0.76
2022-12-16T10:56:53.403Z,-0.63
2022-12-16T10:59:59.474Z,-0.58
2022-12-16T11:03:03.591Z,-0.22
2022-12-16T11:06:07.740Z,-0.33
2022-12-16T11:09:11.518Z,-0.29
2022-12-16T11:12:32.978Z,-0.22
2022-12-16T11:15:44.669Z,-0.17
2022-12-16T11:18:48.603Z,-0.11
2022-12-16T11:22:03.027Z,0.11
2022-12-16T11:25:25.169Z,0.17
2022-12-16T11:28:35.754Z,0.27
2022-12-16T11:31:39.921Z,0.34
2022-12-16T11:34:43.767Z,0.45
2022-12-16T11:37:50.224Z,0.59
2022-12-16T11:40:53.788Z,0.68
2022-12-16T11:44:02.831Z,0.81
2022-12-16T11:47:06.772Z,0.91
2022-12-16T11:50:10.625Z,0.97
2022-12-16T11:53:15.464Z,1.13
2022-12-16T11:56:20.717Z,1.06
2022-12-16T11:59:59.852Z,1.26
2022-12-16T12:03:11.095Z,1.33
2022-12-16T12:06:17.832Z,1.28
2022-12-16T12:09:31.008Z,1.44
2022-12-16T12:12:51.146Z,1.47
2022-12-16T12:16:04.490Z,1.66
2022-12-16T12:19:17.006Z,1.74
2022-12-16T12:22:32.030Z,1.82
2022-12-16T12:25:43.973Z,1.86
2022-12-16T12:29:41.257Z,1.88
2022-12-16T12:32:59.592Z,1.93
2022-12-16T12:36:12.649Z,2.01
2022-12-16T12:39:22.673Z,2.03
2022-12-16T12:42:26.594Z,2.06
2022-12-16T12:45:53.609Z,2.14
2022-12-16T12:49:43.523Z,2.15
2022-12-16T12:52:50.360Z,2.21
2022-12-16T12:56:00.730Z,2.26
2022-12-16T12:59:07.955Z,2.36
2022-12-16T13:02:14.455Z,2.46
2022-12-16T13:05:24.139Z,2.44
2022-12-16T13:08:50.471Z,2.53
2022-12-16T13:11:55.830Z,2.52
2022-12-16T13:15:06.600Z,2.59
2022-12-16T13:18:20.004Z,2.41
2022-12-16T13:21:56.603Z,2.63
2022-12-16T13:25:07.503Z,2.64
2022-12-16T13:28:15.345Z,2.68
2022-12-16T13:31:25.522Z,2.68
2022-12-16T13:34:32.800Z,2.50
2022-12-16T13:37:45.818Z,2.68
2022-12-16T13:41:12.472Z,2.68
2022-12-16T13:44:18.005Z,2.77
2022-12-16T13:47:21.838Z,2.69
2022-12-16T13:50:59.092Z,2.77
2022-12-16T13:54:07.672Z,2.71
2022-12-16T13:57:11.572Z,2.78
2022-12-16T14:00:18.488Z,2.74
2022-12-16T14:03:29.409Z,2.73
2022-12-16T14:06:40.932Z,2.75
2022-12-16T14:09:54.564Z,2.75
2022-12-16T14:13:02.457Z,2.77
2022-12-16T14:16:06.417Z,2.61
2022-12-16T14:19:32.269Z,2.71
2022-12-16T14:22:59.232Z,2.65
2022-12-16T14:26:04.217Z,2.41
2022-12-16T14:29:08.213Z,2.54
2022-12-16T14:32:12.118Z,2.41
2022-12-16T14:35:20.907Z,2.36
2022-12-16T14:38:47.793Z,2.39
2022-12-16T14:41:51.878Z,2.33
2022-12-16T14:44:56.095Z,2.39
2022-12-16T14:47:59.982Z,2.28
2022-12-16T14:51:03.951Z,2.34
2022-12-16T14:54:07.785Z,2.34
2022-12-16T14:57:16.263Z,2.15
2022-12-16T15:00:26.166Z,2.24
2022-12-16T15:03:51.414Z,2.17
2022-12-16T15:07:01.423Z,2.15
2022-12-16T15:10:07.886Z,1.93
2022-12-16T15:13:11.834Z,2.02
2022-12-16T15:16:15.864Z,1.99
2022-12-16T15:19:20.964Z,1.95
2022-12-16T15:22:24.941Z,1.89
2022-12-16T15:25:42.227Z,1.76
2022-12-16T15:29:06.176Z,1.69
2022-12-16T15:32:10.059Z,1.79
2022-12-16T15:35:14.001Z,1.70
2022-12-16T15:38:17.999Z,1.69
2022-12-16T15:41:23.776Z,1.67
2022-12-16T15:44:43.315Z,1.64
2022-12-16T15:47:52.369Z,1.60
2022-12-16T15:50:56.198Z,1.57
2022-12-16T15:53:59.800Z,1.29
2022-12-16T15:57:04.662Z,1.19
2022-12-16T16:00:16.258Z,1.07
2022-12-16T16:03:20.186Z,0.99
2022-12-16T16:06:34.003Z,1.24
2022-12-16T16:09:46.996Z,1.11
2022-12-16T16:12:50.885Z,1.05
2022-12-16T16:15:54.684Z,1.17
2022-12-16T16:18:59.939Z,1.02
2022-12-16T16:22:05.816Z,0.97
2022-12-16T16:25:09.460Z,0.92
2022-12-16T16:28:13.387Z,0.88
2022-12-16T16:31:17.205Z,0.52
2022-12-16T16:34:21.718Z,0.58
2022-12-16T16:37:34.944Z,0.49
2022-12-16T16:41:00.075Z,0.49
2022-12-16T16:44:04.029Z,0.53
2022-12-16T16:47:07.780Z,0.20
2022-12-16T16:50:14.784Z,-0.06
2022-12-16T16:53:22.859Z,0.44
2022-12-16T16:56:29.147Z,0.54
2022-12-16T16:59:33.203Z,0.54
2022-12-16T17:02:41.356Z,0.53
2022-12-16T17:05:45.518Z,0.42
2022-12-16T17:08:49.346Z,0.42
2022-12-16T17:11:53.819Z,0.35
2022-12-16T17:14:57.686Z,0.47
2022-12-16T17:18:01.551Z,0.44
2022-12-16T17:21:05.325Z,0.36
2022-12-16T17:24:09.450Z,0.46
2022-12-16T17:27:13.020Z,0.31
2022-12-16T17:30:17.023Z,-0.25
2022-12-16T17:33:20.799Z,-0.50
2022-12-16T17:36:29.990Z,-0.76
2022-12-16T17:39:35.215Z,-0.56
2022-12-16T17:42:44.707Z,-0.52
2022-12-16T17:45:49.912Z,-0.74
2022-12-16T17:48:53.856Z,1.62
2022-12-16T17:51:58.107Z,2.56
2022-12-16T17:55:01.859Z,2.59
2022-12-16T17:58:05.847Z,1.00
2022-12-16T18:01:09.805Z,0.07
2022-12-16T18:04:13.812Z,-0.11
2022-12-16T18:07:17.554Z,-0.31
2022-12-16T18:10:21.479Z,-0.61
2022-12-16T18:13:25.626Z,-0.80
2022-12-16T18:16:29.513Z,-0.88
2022-12-16T18:19:34.242Z,-0.85
2022-12-16T18:22:38.186Z,-1.02
2022-12-16T18:25:41.964Z,-0.86
2022-12-16T18:28:45.773Z,-0.70
2022-12-16T18:31:49.724Z,-0.10
2022-12-16T18:34:53.275Z,-0.66
2022-12-16T18:37:57.204Z,-1.04
2022-12-16T18:41:01.046Z,-1.16
2022-12-16T18:44:04.857Z,-1.24
2022-12-16T18:47:08.870Z,-1.35
2022-12-16T18:50:12.558Z,-1.45
2022-12-16T18:53:16.424Z,-1.61
2022-12-16T18:56:22.342Z,-1.54
2022-12-16T18:59:26.128Z,-1.54
2022-12-16T19:02:30.820Z,-1.48
2022-12-16T19:05:34.518Z,-1.71
2022-12-16T19:08:38.323Z,-1.80
2022-12-16T19:11:42.244Z,-1.87
2022-12-16T19:14:46.290Z,-1.94
2022-12-16T19:17:50.207Z,-2.01
2022-12-16T19:20:54.088Z,-2.04
2022-12-16T19:24:00.978Z,-2.20
2022-12-16T19:27:05.407Z,-2.42
2022-12-16T19:30:10.420Z,-2.33
2022-12-16T19:33:14.025Z,-2.49
2022-12-16T19:36:18.131Z,-2.63
2022-12-16T19:39:21.987Z,-2.42
2022-12-16T19:42:26.067Z,-2.48
2022-12-16T19:45:30.437Z,-2.61
2022-12-16T19:48:47.973Z,-2.58
2022-12-16T19:51:51.773Z,-2.52
2022-12-16T19:54:56.211Z,-2.64
2022-12-16T19:57:59.928Z,-2.69
2022-12-16T20:01:03.812Z,-2.85
2022-12-16T20:04:11.973Z,-2.76
2022-12-16T20:07:17.809Z,-2.82
2022-12-16T20:10:30.267Z,-2.81
2022-12-16T20:13:33.808Z,-2.86
2022-12-16T20:16:37.661Z,-2.93
2022-12-16T20:19:41.720Z,-2.96
2022-12-16T20:22:45.610Z,-3.05
2022-12-16T20:25:49.516Z,-3.00
2022-12-16T20:28:53.200Z,-3.11
2022-12-16T20:32:00.237Z,-3.18
2022-12-16T20:35:04.143Z,-3.18
2022-12-16T20:38:08.005Z,-3.15
2022-12-16T20:41:20.540Z,-3.06
2022-12-16T20:44:24.381Z,-3.11
2022-12-16T20:47:28.133Z,-3.16
2022-12-16T20:50:32.225Z,-3.23
2022-12-16T20:53:36.392Z,-3.20
2022-12-16T20:56:40.566Z,-3.38
2022-12-16T20:59:44.333Z,-3.36
2022-12-16T21:02:48.249Z,-3.50
2022-12-16T21:05:52.563Z,-3.45
2022-12-16T21:09:01.591Z,-3.47
2022-12-16T21:12:04.877Z,-3.52
2022-12-16T21:15:08.824Z,-3.56
2022-12-16T21:18:13.496Z,-3.63
2022-12-16T21:21:17.531Z,-3.53
2022-12-16T21:24:31.985Z,-3.68
2022-12-16T21:27:35.442Z,-3.81
2022-12-16T21:30:39.511Z,-3.83
2022-12-16T21:33:54.001Z,-3.84
2022-12-16T21:36:59.082Z,-3.89
2022-12-16T21:40:02.873Z,-4.01
2022-12-16T21:43:06.968Z,-4.08
2022-12-16T21:46:12.395Z,-4.13
2022-12-16T21:49:16.317Z,-4.31
2022-12-16T21:52:20.074Z,-4.23
2022-12-16T21:55:24.441Z,-4.23
2022-12-16T21:58:29.897Z,-4.16
2022-12-16T22:01:33.863Z,-4.15
2022-12-16T22:04:37.654Z,-4.27
2022-12-16T22:07:41.517Z,-4.38
2022-12-16T22:10:45.656Z,-4.37
2022-12-16T22:13:49.685Z,-4.31
2022-12-16T22:16:53.650Z,-4.29
2022-12-16T22:19:57.412Z,-4.25
2022-12-16T22:23:01.077Z,-4.23
2022-12-16T22:26:21.703Z,-4.29
2022-12-16T22:29:25.438Z,-4.44
2022-12-16T22:32:29.493Z,-4.38
2022-12-16T22:35:33.324Z,-4.38
2022-12-16T22:38:37.208Z,-4.44
2022-12-16T22:41:41.120Z,-4.51
2022-12-16T22:44:44.966Z,-4.69
2022-12-16T22:47:49.835Z,-4.60
2022-12-16T22:50:53.582Z,-4.60
2022-12-16T22:53:59.838Z,-4.68
2022-12-16T22:57:03.730Z,-4.69
2022-12-16T23:00:07.646Z,-4.60
2022-12-16T23:03:11.494Z,-4.87
2022-12-16T23:06:15.319Z,-4.69
2022-12-16T23:09:19.129Z,-4.67
2022-12-16T23:12:23.436Z,-4.69
2022-12-16T23:15:30.332Z,-4.61
2022-12-16T23:18:34.257Z,-4.65
2022-12-16T23:21:38.428Z,-4.70
2022-12-16T23:24:42.266Z,-4.72
2022-12-16T23:27:46.225Z,-4.89
2022-12-16T23:30:50.131Z,-4.84
2022-12-16T23:33:53.801Z,-5.10
2022-12-16T23:37:00.575Z,-4.82
2022-12-16T23:40:04.471Z,-4.85
2022-12-16T23:43:08.152Z,-4.90
2022-12-16T23:46:12.110Z,-4.92
2022-12-16T23:49:15.932Z,-4.96
2022-12-16T23:52:19.852Z,-4.97
2022-12-16T23:55:24.282Z,-5.00
2022-12-16T23:58:28.637Z,-5.04
